Check out our new BloomSky Weather System.

Active alerts


No alerts


Thunder radar  blitzortung!


Rain radar more information rain snow radar


Visit our other weather sites:

Template documentation
and downloads

And another site



Weather Underground History page Text

Daily Summary for April 12, 2017 Units:  Metric    English   Both
« Previous Day
Next Day »
Daily Weekly Monthly Yearly Custom
  High: Low: Average:
Temperature: 26.7 °C 15.1 °C 20.2 °C
Dew Point: 21.9 °C 14.9 °C 18.7 °C
Humidity: 99 % 73 % 92 %
Wind Speed: 11.3 km/h 0 km/h 1.9 km/h
Wind Gust: 24.1 km/h - -
Wind:- - SSE
Pressure: 1022.6 hPa 1019.5 hPa -
Precipitation: 0.25 mm    
Historical Graphs
 
 
Tabular Data for April 12, 2017
Time Temperature Dew Point Pressure Wind Wind Speed Wind Gust Humidity Rainfall Rate (Hourly)
00:00 16.1 °C 15.8 °C 1020.9 hPa Calm   1.6 km/h 98 % 0 mm
00:05 16 °C 15.7 °C 1020.9 hPa Calm   1.6 km/h 98 % 0 mm
00:10 15.9 °C 15.6 °C 1020.9 hPa Calm   1.6 km/h 98 % 0 mm
00:15 15.9 °C 15.6 °C 1020.9 hPa Calm   1.6 km/h 98 % 0 mm
00:20 15.9 °C 15.7 °C 1020.9 hPa Calm   1.6 km/h 99 % 0 mm
00:25 15.9 °C 15.6 °C 1020.9 hPa Calm   1.6 km/h 98 % 0 mm
00:30 15.8 °C 15.5 °C 1020.9 hPa Calm     98 % 0 mm
00:35 15.8 °C 15.5 °C 1020.9 hPa Calm     98 % 0 mm
00:40 15.7 °C 15.4 °C 1020.9 hPa Calm     98 % 0 mm
00:45 15.7 °C 15.4 °C 1020.9 hPa Calm     98 % 0 mm
00:50 15.7 °C 15.4 °C 1020.9 hPa Calm     98 % 0 mm
00:55 15.6 °C 15.3 °C 1020.5 hPa Calm     98 % 0 mm
01:00 15.6 °C 15.4 °C 1020.5 hPa Calm     99 % 0 mm
01:05 15.6 °C 15.3 °C 1020.5 hPa Calm     98 % 0 mm
01:10 15.5 °C 15.2 °C 1020.5 hPa Calm     98 % 0 mm
01:15 15.5 °C 15.3 °C 1020.5 hPa Calm     99 % 0 mm
01:20 15.6 °C 15.4 °C 1020.5 hPa Calm   1.6 km/h 99 % 0 mm
01:25 15.6 °C 15.4 °C 1020.2 hPa Calm   1.6 km/h 99 % 0 mm
01:30 15.6 °C 15.4 °C 1020.2 hPa Calm   1.6 km/h 99 % 0 mm
01:35 15.6 °C 15.4 °C 1020.2 hPa Calm   1.6 km/h 99 % 0 mm
01:40 15.5 °C 15.3 °C 1020.2 hPa Calm   1.6 km/h 99 % 0 mm
01:45 15.5 °C 15.3 °C 1020.2 hPa Calm   1.6 km/h 99 % 0 mm
01:50 15.3 °C 15 °C 1020.2 hPa Calm     98 % 0 mm
01:55 15.3 °C 15 °C 1020.2 hPa Calm     98 % 0 mm
02:00 15.3 °C 15.1 °C 1019.9 hPa Calm   1.6 km/h 99 % 0 mm
02:05 15.3 °C 15.1 °C 1019.9 hPa Calm   1.6 km/h 99 % 0 mm
02:10 15.2 °C 15 °C 1019.9 hPa Calm   1.6 km/h 99 % 0 mm
02:15 15.2 °C 15 °C 1019.9 hPa Calm     99 % 0 mm
02:20 15.2 °C 15 °C 1019.9 hPa Calm     99 % 0 mm
02:25 15.1 °C 14.9 °C 1020.2 hPa Calm     99 % 0 mm
02:30 15.1 °C 14.9 °C 1019.9 hPa Calm     99 % 0 mm
02:35 15.1 °C 14.9 °C 1019.9 hPa Calm     99 % 0 mm
02:40 15.1 °C 14.9 °C 1019.9 hPa Calm   1.6 km/h 99 % 0 mm
02:45 15.1 °C 14.9 °C 1019.9 hPa Calm   1.6 km/h 99 % 0 mm
02:50 15.1 °C 14.9 °C 1019.9 hPa Calm   1.6 km/h 99 % 0 mm
02:55 15.1 °C 14.9 °C 1019.9 hPa Calm   1.6 km/h 99 % 0 mm
03:00 15.1 °C 14.9 °C 1019.9 hPa Calm   1.6 km/h 99 % 0 mm
03:06 15.2 °C 15 °C 1019.9 hPa Calm   1.6 km/h 99 % 0 mm
03:11 15.1 °C 14.9 °C 1019.9 hPa Calm     99 % 0 mm
03:16 15.1 °C 14.9 °C 1019.9 hPa Calm     99 % 0 mm
03:21 15.1 °C 14.9 °C 1019.9 hPa Calm   1.6 km/h 99 % 0 mm
03:26 15.2 °C 15 °C 1019.9 hPa Calm   1.6 km/h 99 % 0 mm
03:31 15.2 °C 15 °C 1019.9 hPa Calm   1.6 km/h 99 % 0 mm
03:36 15.4 °C 15.2 °C 1019.9 hPa Calm   1.6 km/h 99 % 0 mm
03:41 15.4 °C 15.2 °C 1019.9 hPa Calm   1.6 km/h 99 % 0 mm
03:46 15.6 °C 15.4 °C 1019.9 hPa Calm   1.6 km/h 99 % 0 mm
03:51 15.6 °C 15.4 °C 1019.9 hPa Calm   1.6 km/h 99 % 0 mm
03:56 15.7 °C 15.5 °C 1019.9 hPa NNW 1.6 km/h 1.6 km/h 99 % 0 mm
04:01 15.7 °C 15.5 °C 1019.9 hPa NNW 1.6 km/h 4.8 km/h 99 % 0 mm
04:06 15.8 °C 15.6 °C 1019.9 hPa Calm   4.8 km/h 99 % 0 mm
04:11 15.8 °C 15.6 °C 1019.9 hPa NNW 1.6 km/h 6.4 km/h 99 % 0 mm
04:16 15.8 °C 15.6 °C 1019.9 hPa NW 3.2 km/h 6.4 km/h 99 % 0 mm
04:21 15.8 °C 15.6 °C 1019.9 hPa Calm   6.4 km/h 99 % 0 mm
04:26 15.8 °C 15.6 °C 1019.9 hPa Calm   6.4 km/h 99 % 0 mm
04:31 15.8 °C 15.6 °C 1019.9 hPa NW 1.6 km/h 6.4 km/h 99 % 0 mm
04:36 15.8 °C 15.6 °C 1019.5 hPa Calm   6.4 km/h 99 % 0 mm
04:41 15.9 °C 15.7 °C 1019.9 hPa NE 1.6 km/h 4.8 km/h 99 % 0 mm
04:46 15.9 °C 15.7 °C 1019.9 hPa Calm   4.8 km/h 99 % 0 mm
04:51 15.9 °C 15.7 °C 1019.9 hPa NNW 1.6 km/h 4.8 km/h 99 % 0 mm
04:56 15.9 °C 15.7 °C 1019.9 hPa North 1.6 km/h 4.8 km/h 99 % 0 mm
05:01 15.9 °C 15.7 °C 1019.9 hPa NW 1.6 km/h 4.8 km/h 99 % 0 mm
05:06 16 °C 15.8 °C 1019.9 hPa Calm   4.8 km/h 99 % 0 mm
05:11 16 °C 15.8 °C 1019.9 hPa Calm   4.8 km/h 99 % 0 mm
05:16 16.1 °C 15.9 °C 1019.9 hPa Calm   4.8 km/h 99 % 0 mm
05:21 16.1 °C 15.9 °C 1019.9 hPa Calm   3.2 km/h 99 % 0 mm
05:26 16.1 °C 15.9 °C 1019.9 hPa Calm   3.2 km/h 99 % 0 mm
05:31 16.1 °C 15.9 °C 1019.9 hPa ENE 3.2 km/h 3.2 km/h 99 % 0 mm
05:36 16.2 °C 16 °C 1019.9 hPa NNW 1.6 km/h 4.8 km/h 99 % 0 mm
05:41 16.2 °C 16 °C 1019.9 hPa NNW 3.2 km/h 4.8 km/h 99 % 0 mm
05:46 16.2 °C 16 °C 1019.9 hPa NNE 1.6 km/h 4.8 km/h 99 % 0 mm
05:51 16.2 °C 16 °C 1019.9 hPa NW 1.6 km/h 4.8 km/h 99 % 0 mm
05:56 16.2 °C 16 °C 1019.9 hPa Calm   4.8 km/h 99 % 0 mm
06:01 16.2 °C 16 °C 1019.9 hPa North 3.2 km/h 4.8 km/h 99 % 0 mm
06:06 16.2 °C 16 °C 1019.9 hPa Calm   4.8 km/h 99 % 0 mm
06:11 16.3 °C 16.1 °C 1019.9 hPa North 1.6 km/h 4.8 km/h 99 % 0 mm
06:16 16.3 °C 16.1 °C 1020.2 hPa North 3.2 km/h 4.8 km/h 99 % 0 mm
06:21 16.3 °C 16.1 °C 1020.2 hPa North 1.6 km/h 4.8 km/h 99 % 0 mm
06:26 16.4 °C 16.2 °C 1020.2 hPa NNW 1.6 km/h 4.8 km/h 99 % 0 mm
06:31 16.4 °C 16.2 °C 1020.2 hPa Calm   4.8 km/h 99 % 0 mm
06:36 16.4 °C 16.2 °C 1020.2 hPa Calm   3.2 km/h 99 % 0 mm
06:41 16.4 °C 16.2 °C 1020.5 hPa Calm   3.2 km/h 99 % 0 mm
06:46 16.5 °C 16.3 °C 1020.2 hPa NNW 1.6 km/h 1.6 km/h 99 % 0 mm
06:51 16.5 °C 16.3 °C 1020.5 hPa Calm   4.8 km/h 99 % 0 mm
06:56 16.6 °C 16.4 °C 1020.5 hPa Calm   4.8 km/h 99 % 0 mm
07:01 16.6 °C 16.4 °C 1020.5 hPa NNW 1.6 km/h 4.8 km/h 99 % 0 mm
07:06 16.6 °C 16.4 °C 1020.5 hPa WNW 1.6 km/h 4.8 km/h 99 % 0 mm
07:11 16.6 °C 16.4 °C 1020.5 hPa Calm   4.8 km/h 99 % 0 mm
07:16 16.6 °C 16.4 °C 1020.5 hPa NW 1.6 km/h 3.2 km/h 99 % 0 mm
07:21 16.6 °C 16.4 °C 1020.9 hPa Calm   3.2 km/h 99 % 0 mm
07:26 16.7 °C 16.5 °C 1020.9 hPa Calm   3.2 km/h 99 % 0 mm
07:31 16.7 °C 16.5 °C 1020.9 hPa Calm   4.8 km/h 99 % 0 mm
07:36 16.8 °C 16.6 °C 1020.9 hPa Calm   4.8 km/h 99 % 0 mm
07:41 16.8 °C 16.6 °C 1021.2 hPa NNE 1.6 km/h 6.4 km/h 99 % 0 mm
07:46 16.8 °C 16.6 °C 1021.2 hPa NNW 1.6 km/h 6.4 km/h 99 % 0 mm
07:51 16.9 °C 16.7 °C 1021.2 hPa Calm   6.4 km/h 99 % 0 mm
07:56 16.9 °C 16.7 °C 1021.2 hPa Calm   3.2 km/h 99 % 0 mm
08:01 17 °C 16.8 °C 1021.6 hPa North 1.6 km/h 3.2 km/h 99 % 0 mm
08:06 17.1 °C 16.9 °C 1021.6 hPa Calm   4.8 km/h 99 % 0 mm
08:11 17.2 °C 17 °C 1021.6 hPa Calm   4.8 km/h 99 % 0 mm
08:16 17.2 °C 17 °C 1021.6 hPa Calm   4.8 km/h 99 % 0 mm
08:21 17.3 °C 17.1 °C 1021.6 hPa Calm   3.2 km/h 99 % 0 mm
08:26 17.3 °C 17 °C 1021.6 hPa Calm   6.4 km/h 98 % 0 mm
08:31 17.3 °C 17 °C 1021.6 hPa NNW 1.6 km/h 6.4 km/h 98 % 0 mm
08:36 17.4 °C 17.1 °C 1021.6 hPa ESE 1.6 km/h 6.4 km/h 98 % 0 mm
08:41 17.4 °C 17.1 °C 1021.6 hPa NW 1.6 km/h 6.4 km/h 98 % 0 mm
08:46 17.5 °C 17.2 °C 1021.6 hPa NNE 4.8 km/h 6.4 km/h 98 % 0 mm
08:52 17.6 °C 17.3 °C 1021.6 hPa NE 6.4 km/h 6.4 km/h 98 % 0 mm
08:57 17.8 °C 17.5 °C 1021.6 hPa Calm   8 km/h 98 % 0 mm
09:02 17.9 °C 17.6 °C 1021.6 hPa NW 1.6 km/h 8 km/h 98 % 0 mm
09:07 17.9 °C 17.4 °C 1021.6 hPa North 1.6 km/h 8 km/h 97 % 0 mm
09:12 18.1 °C 17.6 °C 1021.6 hPa East 3.2 km/h 8 km/h 97 % 0 mm
09:17 18.1 °C 17.6 °C 1021.6 hPa Calm   8 km/h 97 % 0 mm
09:22 18.3 °C 17.8 °C 1021.6 hPa NE 1.6 km/h 8 km/h 97 % 0 mm
09:27 18.7 °C 18.2 °C 1021.6 hPa North 1.6 km/h 8 km/h 97 % 0 mm
09:30 18.8 °C 18.3 °C 1021.6 hPa Calm   8 km/h 97 % 0 mm
09:35 18.9 °C 18.2 °C 1021.6 hPa North 1.6 km/h 9.7 km/h 96 % 0 mm
09:40 19.1 °C 18.4 °C 1021.9 hPa Calm   9.7 km/h 96 % 0 mm
09:45 19.3 °C 18.6 °C 1021.9 hPa Calm   9.7 km/h 96 % 0 mm
09:50 19.4 °C 18.6 °C 1021.9 hPa NW 3.2 km/h 8 km/h 95 % 0 mm
09:55 19.5 °C 18.5 °C 1021.9 hPa ENE 1.6 km/h 6.4 km/h 94 % 0 mm
10:00 19.6 °C 18.6 °C 1021.9 hPa NNW 1.6 km/h 6.4 km/h 94 % 0 mm
10:05 19.7 °C 18.7 °C 1021.9 hPa NW 4.8 km/h 9.7 km/h 94 % 0 mm
10:10 19.8 °C 18.8 °C 1022.2 hPa Calm   9.7 km/h 94 % 0 mm
10:15 20.1 °C 19.1 °C 1022.2 hPa NNE 1.6 km/h 9.7 km/h 94 % 0 mm
10:20 20.5 °C 19.3 °C 1022.2 hPa Calm   6.4 km/h 93 % 0 mm
10:25 20.6 °C 19.3 °C 1022.2 hPa Calm   6.4 km/h 92 % 0 mm
10:30 20.7 °C 19.4 °C 1022.2 hPa Calm   6.4 km/h 92 % 0 mm
10:35 21 °C 19.5 °C 1022.2 hPa NNW 4.8 km/h 8 km/h 91 % 0 mm
10:36 21 °C 19.5 °C 1022.6 hPa ENE 1.6 km/h 8 km/h 91 % 0 mm
10:41 21.2 °C 19.7 °C 1022.6 hPa West 1.6 km/h 8 km/h 91 % 0 mm
10:46 21.7 °C 20 °C 1022.6 hPa ENE 6.4 km/h 8 km/h 90 % 0 mm
10:51 22 °C 20.3 °C 1022.2 hPa NW 4.8 km/h 8 km/h 90 % 0 mm
10:56 22.2 °C 19.9 °C 1022.6 hPa NNE 6.4 km/h 8 km/h 87 % 0 mm
11:01 22.3 °C 20 °C 1022.2 hPa East 3.2 km/h 8 km/h 87 % 0 mm
11:06 22.2 °C 19.9 °C 1022.2 hPa Calm   11.3 km/h 87 % 0 mm
11:11 22.5 °C 20.4 °C 1022.2 hPa SE 4.8 km/h 11.3 km/h 88 % 0 mm
11:12 26.1 °C 21.3 °C 1019.9 hPa Calm   11.3 km/h 75 % 0 mm
11:13 26.1 °C 21.3 °C 1019.9 hPa Calm   11.3 km/h 75 % 0 mm
11:14 26.1 °C 21.5 °C 1019.5 hPa North 3.2 km/h 11.3 km/h 76 % 0 mm
11:15 26.1 °C 21.3 °C 1019.5 hPa ENE 3.2 km/h 11.3 km/h 75 % 0 mm
11:16 22.8 °C 20.5 °C 1022.2 hPa East 4.8 km/h 11.3 km/h 87 % 0 mm
11:21 23 °C 20.5 °C 1022.2 hPa East 4.8 km/h 6.4 km/h 86 % 0 mm
11:26 22.9 °C 20.2 °C 1022.2 hPa East 3.2 km/h 9.7 km/h 85 % 0 mm
11:31 22.9 °C 20.4 °C 1022.2 hPa Calm   9.7 km/h 86 % 0 mm
11:36 23.2 °C 20.7 °C 1022.2 hPa ESE 3.2 km/h 9.7 km/h 86 % 0 mm
11:41 23.2 °C 20.5 °C 1022.2 hPa NNE 3.2 km/h 9.7 km/h 85 % 0 mm
11:46 23.3 °C 20.6 °C 1022.2 hPa Calm   9.7 km/h 85 % 0 mm
11:51 23.7 °C 21 °C 1022.2 hPa ESE 8 km/h 9.7 km/h 85 % 0 mm
11:56 23.8 °C 20.9 °C 1022.2 hPa ENE 3.2 km/h 9.7 km/h 84 % 0 mm
12:01 23.8 °C 20.9 °C 1022.2 hPa NW 3.2 km/h 9.7 km/h 84 % 0 mm
12:06 23.8 °C 20.9 °C 1022.2 hPa Calm   9.7 km/h 84 % 0 mm
12:11 24 °C 21.1 °C 1021.9 hPa NW 1.6 km/h 9.7 km/h 84 % 0 mm
12:16 24.1 °C 21 °C 1021.9 hPa NE 3.2 km/h 9.7 km/h 83 % 0 mm
12:21 24.6 °C 21.9 °C 1021.9 hPa East 1.6 km/h 9.7 km/h 85 % 0 mm
12:26 24.7 °C 21 °C 1021.9 hPa ENE 1.6 km/h 9.7 km/h 80 % 0 mm
12:31 24.7 °C 21.2 °C 1021.9 hPa ENE 1.6 km/h 9.7 km/h 81 % 0 mm
12:36 24.6 °C 21.1 °C 1021.6 hPa ENE 3.2 km/h 9.7 km/h 81 % 0 mm
12:41 24.7 °C 21.6 °C 1021.6 hPa Calm   9.7 km/h 83 % 0 mm
12:46 25.1 °C 21.4 °C 1021.6 hPa SE 4.8 km/h 11.3 km/h 80 % 0 mm
12:51 25 °C 21.3 °C 1021.6 hPa ESE 6.4 km/h 11.3 km/h 80 % 0 mm
12:56 25 °C 21.1 °C 1021.6 hPa Calm   11.3 km/h 79 % 0 mm
13:01 25.2 °C 21.7 °C 1021.6 hPa Calm   11.3 km/h 81 % 0 mm
13:06 25.5 °C 21.6 °C 1021.6 hPa Calm   11.3 km/h 79 % 0 mm
13:11 25.4 °C 21.5 °C 1021.2 hPa WNW 3.2 km/h 11.3 km/h 79 % 0 mm
13:16 25.6 °C 21.5 °C 1021.2 hPa ENE 3.2 km/h 11.3 km/h 78 % 0 mm
13:21 25.6 °C 21.5 °C 1021.2 hPa ENE 4.8 km/h 11.3 km/h 78 % 0 mm
13:26 25.5 °C 21 °C 1021.2 hPa SE 1.6 km/h 11.3 km/h 76 % 0 mm
13:31 25.7 °C 21.6 °C 1020.9 hPa East 1.6 km/h 11.3 km/h 78 % 0 mm
13:36 26 °C 21.9 °C 1020.9 hPa NE 4.8 km/h 11.3 km/h 78 % 0 mm
13:41 26.1 °C 21.5 °C 1020.9 hPa WNW 4.8 km/h 11.3 km/h 76 % 0 mm
13:46 26.2 °C 21.8 °C 1020.9 hPa East 3.2 km/h 11.3 km/h 77 % 0 mm
13:51 26.3 °C 21.5 °C 1020.9 hPa ESE 3.2 km/h 11.3 km/h 75 % 0 mm
13:56 26.3 °C 21.5 °C 1020.9 hPa East 9.7 km/h 9.7 km/h 75 % 0 mm
14:01 26.2 °C 21.6 °C 1020.5 hPa North 4.8 km/h 11.3 km/h 76 % 0 mm
14:02 26.2 °C 21.6 °C 1020.5 hPa NNW 1.6 km/h 11.3 km/h 76 % 0 mm
14:07 26.4 °C 21.8 °C 1020.5 hPa Calm   12.9 km/h 76 % 0 mm
14:12 26.6 °C 21.8 °C 1020.5 hPa SE 3.2 km/h 12.9 km/h 75 % 0 mm
14:17 26.7 °C 21.5 °C 1020.5 hPa North 6.4 km/h 12.9 km/h 73 % 0 mm
14:22 26.4 °C 21.4 °C 1020.5 hPa NW 3.2 km/h 12.9 km/h 74 % 0 mm
14:27 26.2 °C 21.4 °C 1020.5 hPa NNW 6.4 km/h 12.9 km/h 75 % 0 mm
14:32 26.2 °C 21.4 °C 1020.2 hPa Calm   12.9 km/h 75 % 0 mm
16:16 26.2 °C 21.4 °C 1019.5 hPa ENE 11.3 km/h -1607.7 km/h 75 % 0 mm
16:21 26.3 °C 21.3 °C 1019.5 hPa ESE 6.4 km/h 12.9 km/h 74 % 0 mm
16:26 26.1 °C 21.1 °C 1019.5 hPa East 4.8 km/h 11.3 km/h 74 % 0 mm
16:31 25.8 °C 21.2 °C 1019.9 hPa South 6.4 km/h 14.5 km/h 76 % 0 mm
16:36 25.1 °C 21.2 °C 1019.9 hPa SE 3.2 km/h 24.1 km/h 79 % 0 mm
16:41 24.6 °C 21.7 °C 1019.9 hPa ESE 8 km/h 24.1 km/h 84 % 0 mm
16:46 24.1 °C 21.6 °C 1019.9 hPa SSE 6.4 km/h 24.1 km/h 86 % 0.25 mm
16:51 23.8 °C 21.5 °C 1019.9 hPa ESE 8 km/h 16.1 km/h 87 % 0.25 mm
16:56 23.6 °C 21.5 °C 1019.9 hPa East 6.4 km/h 14.5 km/h 88 % 0.25 mm
17:01 23.4 °C 21.1 °C 1019.9 hPa East 1.6 km/h 14.5 km/h 87 % 0.25 mm
17:06 23.5 °C 21.4 °C 1019.9 hPa ESE 3.2 km/h 14.5 km/h 88 % 0.25 mm
17:11 23.6 °C 21.5 °C 1019.9 hPa East 1.6 km/h 12.9 km/h 88 % 0.25 mm
17:16 23.6 °C 21.3 °C 1019.9 hPa ESE 1.6 km/h 12.9 km/h 87 % 0.25 mm
17:21 23.6 °C 21.3 °C 1019.9 hPa SE 1.6 km/h 8 km/h 87 % 0.25 mm
17:26 23.6 °C 21.1 °C 1019.9 hPa ESE 6.4 km/h 9.7 km/h 86 % 0.25 mm
17:32 23.6 °C 21.1 °C 1019.9 hPa SSE 4.8 km/h 9.7 km/h 86 % 0.25 mm
17:37 23.7 °C 21.4 °C 1019.9 hPa SE 6.4 km/h 9.7 km/h 87 % 0.25 mm
17:42 23.7 °C 21.2 °C 1019.9 hPa SE 3.2 km/h 9.7 km/h 86 % 0.25 mm
17:46 23.7 °C 21.2 °C 1019.9 hPa ESE 9.7 km/h 11.3 km/h 86 % 0 mm
17:52 23.6 °C 20.9 °C 1019.9 hPa SSE 4.8 km/h 12.9 km/h 85 % 0 mm
17:57 23.6 °C 21.1 °C 1019.9 hPa ESE 4.8 km/h 12.9 km/h 86 % 0 mm
18:02 23.5 °C 21 °C 1019.9 hPa ESE 4.8 km/h 12.9 km/h 86 % 0 mm
18:07 23.5 °C 21 °C 1019.9 hPa South 4.8 km/h 12.9 km/h 86 % 0 mm
18:12 23.6 °C 21.3 °C 1019.5 hPa SE 4.8 km/h 12.9 km/h 87 % 0 mm
18:17 23.6 °C 21.1 °C 1019.5 hPa SE 4.8 km/h 9.7 km/h 86 % 0 mm
18:22 23.6 °C 21.3 °C 1019.5 hPa ESE 4.8 km/h 11.3 km/h 87 % 0 mm
18:27 23.6 °C 21.3 °C 1019.5 hPa East 6.4 km/h 11.3 km/h 87 % 0 mm
18:32 23.6 °C 21.3 °C 1019.5 hPa SE 6.4 km/h 11.3 km/h 87 % 0 mm
18:37 23.6 °C 21.3 °C 1019.5 hPa SE 4.8 km/h 11.3 km/h 87 % 0 mm
18:42 23.7 °C 21.2 °C 1019.5 hPa ESE 8 km/h 11.3 km/h 86 % 0 mm
18:47 23.7 °C 21.2 °C 1019.5 hPa SE 4.8 km/h 14.5 km/h 86 % 0 mm
18:52 23.7 °C 21.2 °C 1019.5 hPa SE 3.2 km/h 14.5 km/h 86 % 0 mm
18:57 23.7 °C 21.2 °C 1019.5 hPa ESE 3.2 km/h 14.5 km/h 86 % 0 mm
19:02 23.7 °C 21.2 °C 1019.5 hPa SE 8 km/h 14.5 km/h 86 % 0 mm
19:07 23.7 °C 21.2 °C 1019.5 hPa East 3.2 km/h 14.5 km/h 86 % 0 mm
19:17 23.7 °C 21 °C 1019.5 hPa SE 6.4 km/h 12.9 km/h 85 % 0 mm
19:27 23.7 °C 21 °C 1019.9 hPa ESE 4.8 km/h 12.9 km/h 85 % 0 mm
19:32 23.7 °C 21 °C 1019.9 hPa SSE 4.8 km/h 11.3 km/h 85 % 0 mm
19:37 23.7 °C 21 °C 1019.9 hPa SE 3.2 km/h 11.3 km/h 85 % 0 mm
19:47 23.6 °C 21.1 °C 1019.9 hPa Calm   9.7 km/h 86 % 0 mm
19:52 23.5 °C 21 °C 1019.9 hPa North 3.2 km/h 9.7 km/h 86 % 0 mm
19:57 23.4 °C 21.1 °C 1019.9 hPa ESE 1.6 km/h 9.7 km/h 87 % 0 mm
20:02 23.3 °C 21 °C 1019.9 hPa East 8 km/h 8 km/h 87 % 0 mm
20:07 23.2 °C 20.9 °C 1019.9 hPa SE 4.8 km/h 16.1 km/h 87 % 0 mm
20:12 23.2 °C 20.9 °C 1019.9 hPa SE 3.2 km/h 16.1 km/h 87 % 0 mm
20:17 23.1 °C 21 °C 1019.9 hPa East 6.4 km/h 16.1 km/h 88 % 0 mm
20:27 22.9 °C 20.8 °C 1019.9 hPa ESE 4.8 km/h 9.7 km/h 88 % 0 mm
20:32 22.8 °C 20.7 °C 1019.9 hPa SE 4.8 km/h 9.7 km/h 88 % 0 mm
20:37 22.8 °C 20.9 °C 1020.2 hPa ESE 4.8 km/h 9.7 km/h 89 % 0 mm
20:42 22.8 °C 20.9 °C 1020.2 hPa SSE 1.6 km/h 11.3 km/h 89 % 0 mm
20:47 22.7 °C 20.8 °C 1020.2 hPa South 3.2 km/h 11.3 km/h 89 % 0 mm
20:52 22.7 °C 20.8 °C 1020.2 hPa SE 1.6 km/h 11.3 km/h 89 % 0 mm
20:57 22.7 °C 21 °C 1020.5 hPa SE 1.6 km/h 8 km/h 90 % 0 mm
21:02 22.6 °C 20.9 °C 1020.5 hPa SE 1.6 km/h 8 km/h 90 % 0 mm
21:07 22.6 °C 20.9 °C 1020.5 hPa ESE 1.6 km/h 6.4 km/h 90 % 0 mm
21:12 22.6 °C 21.1 °C 1020.5 hPa East 1.6 km/h 6.4 km/h 91 % 0 mm
21:17 22.5 °C 21 °C 1020.5 hPa ESE 4.8 km/h 6.4 km/h 91 % 0 mm
21:22 22.4 °C 20.9 °C 1020.9 hPa ESE 3.2 km/h 8 km/h 91 % 0 mm
21:27 22.4 °C 20.9 °C 1020.9 hPa NE 3.2 km/h 8 km/h 91 % 0 mm
21:32 22.3 °C 20.8 °C 1020.9 hPa Calm   8 km/h 91 % 0 mm
21:37 22.2 °C 20.8 °C 1020.9 hPa ESE 1.6 km/h 4.8 km/h 92 % 0 mm
21:42 22.1 °C 20.7 °C 1020.9 hPa Calm   4.8 km/h 92 % 0 mm
21:47 22 °C 20.6 °C 1020.9 hPa Calm   6.4 km/h 92 % 0 mm
21:52 21.9 °C 20.5 °C 1020.9 hPa Calm   6.4 km/h 92 % 0 mm
21:57 21.9 °C 20.5 °C 1020.9 hPa Calm   6.4 km/h 92 % 0 mm
22:02 21.8 °C 20.6 °C 1020.9 hPa ESE 1.6 km/h 3.2 km/h 93 % 0 mm
22:07 21.8 °C 20.6 °C 1020.9 hPa ESE 1.6 km/h 3.2 km/h 93 % 0 mm
22:12 21.7 °C 20.5 °C 1020.9 hPa Calm   3.2 km/h 93 % 0 mm
22:17 21.6 °C 20.4 °C 1020.9 hPa Calm   3.2 km/h 93 % 0 mm
22:22 21.5 °C 20.3 °C 1020.9 hPa Calm   3.2 km/h 93 % 0 mm
22:27 21.4 °C 20.2 °C 1020.9 hPa Calm   3.2 km/h 93 % 0 mm
22:32 21.3 °C 20.3 °C 1020.9 hPa Calm   3.2 km/h 94 % 0 mm
22:33 21.3 °C 20.1 °C 1020.9 hPa Calm   3.2 km/h 93 % 0 mm
22:38 21.2 °C 20.2 °C 1020.9 hPa Calm   1.6 km/h 94 % 0 mm
22:43 21 °C 20 °C 1020.9 hPa Calm   1.6 km/h 94 % 0 mm
22:48 20.9 °C 19.9 °C 1020.9 hPa Calm   1.6 km/h 94 % 0 mm
22:53 20.8 °C 19.8 °C 1020.9 hPa Calm   1.6 km/h 94 % 0 mm
22:58 20.8 °C 19.8 °C 1020.9 hPa Calm   1.6 km/h 94 % 0 mm
23:03 20.7 °C 19.7 °C 1020.9 hPa Calm   1.6 km/h 94 % 0 mm
23:08 20.6 °C 19.8 °C 1020.9 hPa Calm   1.6 km/h 95 % 0 mm
23:13 20.4 °C 19.6 °C 1020.9 hPa Calm     95 % 0 mm
23:19 20.3 °C 19.5 °C 1020.9 hPa Calm     95 % 0 mm
23:24 20.3 °C 19.5 °C 1020.9 hPa Calm     95 % 0 mm
23:29 20.2 °C 19.4 °C 1020.9 hPa Calm     95 % 0 mm
23:34 20.1 °C 19.4 °C 1021.2 hPa Calm     96 % 0 mm
23:39 20.1 °C 19.4 °C 1021.2 hPa Calm     96 % 0 mm
23:44 20.1 °C 19.4 °C 1021.2 hPa Calm     96 % 0 mm
23:49 20 °C 19.3 °C 1021.2 hPa Calm   1.6 km/h 96 % 0 mm
23:54 19.9 °C 19.2 °C 1021.2 hPa Calm   1.6 km/h 96 % 0 mm
23:59 19.9 °C 19.2 °C 1021.2 hPa Calm   1.6 km/h 96 % 0 mm
Spring, Texas: Villages of Bridgestone
Compliments of Weather Underground - 2.75 mb

Script developed by  Jim McMurry - jmcmurry@mwt.net Adapted for the template by  Wim van der Kuil - Leuven-Template.eu

You find our weather info also at:

UK Metoffice

WeatherCloud

Weather Underground

Mid-South Weather Network

AWEKAS

Citizen Weather Observer Program (CWOP)

HAMweather, WeatherForYou, PWS Weather

Equipment we use:

Weather-station
Davis Vantage Vue

Weather-program
Meteohub

Weather-server
Debian 7.9 x86 (Guest)

Provider
DreamHost

Davis Vantage Vue

Meteohub

Debian 7.9 x86 (Guest)

DreamHost